Pagrindinis puslapis
METAR-TAF:

METAR-TAF

Oro uostai :

Namsos, Norvegija

platuma: 64-28N, ilguma: 011-35E, Aukštis: 0 m

Dabartinis oras

Ataskaita buvo paskelbta 42 minutes, ne 08:50 UTC
Vėjas 7 kt iš Rytų/Šiaurės Rytų
Temperatūra -15°C
Drėgmė 85%
Slėgis 1019 hPa
Matomumas 10 km arba daugiau
(silpnas) ledijantis, lietus

METAR: ENNM 100850Z AUTO 06007KT 9999 -FZRA ////// M15/M17 Q1019

Laikas: 10:32 (09:32 UTC)

Prognozė

Ataskaita buvo paskelbta 19 valandos ir 32 minutes, ne 14:00 UTC
Prognozė galioja nuo 09 metu 15 UTC su 09 metu 22 UTC
Vėjas 8 kt iš Rytų
Matomumas 10 km arba daugiau
nėra debesų žemiau 1500 m ir nėra kamuolinių lietaus debesų

TAF: ENNM 091400Z 0915/0922 08008KT CAVOK

Orai ataskaitas ir orų prognozės (METAR, TAF).

turimą stotys yra geltonos ir raudonos taškus žemėlapyje.

Perkelti pele per norėdami pamatyti stoties vardą.

Tada spustelėkite, norėdami matyti oro stebėjimo ir prognozės.

Norėdami pakeisti žemėlapį: spustelėkite ant žalios mygtukų su juodo kryžiaus žemyn,; žalią mygtuką su brūkšneliu, jei norite nutolinti; arba žalių rodyklių gretimoms žemėlapius.


METAR-TAF: